createdAt,value
2022-11-15T00:00:01.063Z,17.2
2022-11-15T00:01:01.450Z,17.1
2022-11-15T00:02:02.243Z,16.5
2022-11-15T00:03:01.548Z,16.4
2022-11-15T00:04:08.579Z,16.4
2022-11-15T00:05:01.133Z,16.6
2022-11-15T00:06:03.814Z,16.3
2022-11-15T00:07:01.372Z,16.5
2022-11-15T00:08:04.805Z,16.1
2022-11-15T00:09:01.076Z,15.9
2022-11-15T00:10:01.150Z,16
2022-11-15T00:11:03.966Z,16.5
2022-11-15T00:12:01.101Z,16.6
2022-11-15T00:13:01.126Z,16.6
2022-11-15T00:14:01.179Z,16.9
2022-11-15T00:15:01.114Z,17.3
2022-11-15T00:16:01.140Z,17.6
2022-11-15T00:17:01.837Z,17.8
2022-11-15T00:18:01.428Z,17.9
2022-11-15T00:19:01.378Z,17.6
2022-11-15T00:20:02.019Z,17.5
2022-11-15T00:21:02.067Z,16.4
2022-11-15T00:22:01.965Z,15.9
2022-11-15T00:23:01.059Z,15.8
2022-11-15T00:24:01.070Z,16.1
2022-11-15T00:25:01.101Z,16.4
2022-11-15T00:26:01.087Z,16.7
2022-11-15T00:27:01.303Z,17
2022-11-15T00:28:01.106Z,17.2
2022-11-15T00:29:01.133Z,17.6
2022-11-15T00:30:01.531Z,18
2022-11-15T00:31:01.127Z,18
2022-11-15T00:32:01.133Z,18.1
2022-11-15T00:33:01.194Z,18.2
2022-11-15T00:34:01.154Z,18
2022-11-15T00:35:01.147Z,17.6
2022-11-15T00:36:01.145Z,17.5
2022-11-15T00:37:01.070Z,17.5
2022-11-15T00:38:01.061Z,17.6
2022-11-15T00:39:01.103Z,17.7
2022-11-15T00:40:01.122Z,17.8
2022-11-15T00:41:06.254Z,17.8
2022-11-15T00:42:01.774Z,17.8
2022-11-15T00:43:01.100Z,17.4
2022-11-15T00:44:01.104Z,16.9
2022-11-15T00:45:01.781Z,16.9
2022-11-15T00:46:01.782Z,17.2
2022-11-15T00:47:01.127Z,17.3
2022-11-15T00:48:01.172Z,17.3
2022-11-15T00:49:01.159Z,17.4
2022-11-15T00:50:01.132Z,17.5
2022-11-15T00:51:01.275Z,17.4
2022-11-15T00:52:01.138Z,17.4
2022-11-15T00:53:01.157Z,17.3
2022-11-15T00:54:00.473Z,17.2
2022-11-15T00:55:00.032Z,17.1
2022-11-15T00:55:59.630Z,17
2022-11-15T00:57:01.810Z,17.1
2022-11-15T00:58:01.084Z,17.5
2022-11-15T00:59:01.193Z,17.7
2022-11-15T01:00:01.499Z,17.9
2022-11-15T01:01:01.160Z,18.1
2022-11-15T01:02:01.115Z,19.4
2022-11-15T01:03:01.130Z,19.7
2022-11-15T01:04:01.687Z,19.7
2022-11-15T01:05:01.120Z,19.8
2022-11-15T01:06:00.821Z,19.7
2022-11-15T01:07:00.652Z,20
2022-11-15T01:08:00.564Z,21.7
2022-11-15T01:09:00.214Z,22.6
2022-11-15T01:09:59.827Z,25.9
2022-11-15T01:11:02.123Z,27.6
2022-11-15T01:12:01.174Z,27.5
2022-11-15T01:13:01.075Z,27.2
2022-11-15T01:14:01.114Z,27.3
2022-11-15T01:15:01.223Z,27
2022-11-15T01:16:05.413Z,27.7
2022-11-15T01:17:01.507Z,30.4
2022-11-15T01:18:01.380Z,31.8
2022-11-15T01:19:02.540Z,33.5
2022-11-15T01:20:02.687Z,34.3
2022-11-15T01:21:08.413Z,34.3
2022-11-15T01:22:02.660Z,34.3
2022-11-15T01:23:01.259Z,34.3
2022-11-15T01:24:01.168Z,34.3
2022-11-15T01:25:01.916Z,34.3
2022-11-15T01:26:11.071Z,34.3
2022-11-15T01:27:02.014Z,34.5
2022-11-15T01:28:01.889Z,34.9
2022-11-15T01:29:00.695Z,35.1
2022-11-15T01:30:00.271Z,36.6
2022-11-15T01:31:13.008Z,38.2
2022-11-15T01:32:01.092Z,38.2
2022-11-15T01:33:01.120Z,38.5
2022-11-15T01:34:01.115Z,38.6
2022-11-15T01:35:01.103Z,39.1
2022-11-15T01:36:16.840Z,39.6
2022-11-15T01:37:02.321Z,39.4
2022-11-15T01:38:01.160Z,39.4
2022-11-15T01:39:01.150Z,39.6
2022-11-15T01:40:01.144Z,39.7
2022-11-15T01:41:01.233Z,39.5
2022-11-15T01:42:01.986Z,39.4
2022-11-15T01:43:02.127Z,40.2
2022-11-15T01:44:02.790Z,41.8
2022-11-15T01:45:01.067Z,44.1
2022-11-15T01:46:01.053Z,45.2
2022-11-15T01:47:01.088Z,45.1
2022-11-15T01:48:01.052Z,45.2
2022-11-15T01:49:01.120Z,45.9
2022-11-15T01:50:01.323Z,46.5
2022-11-15T01:51:01.882Z,46.3
2022-11-15T01:52:01.544Z,46.1
2022-11-15T01:53:00.651Z,46.4
2022-11-15T01:54:00.256Z,46.3
2022-11-15T01:54:59.949Z,46.3
2022-11-15T01:55:59.620Z,46.9
2022-11-15T01:57:01.181Z,47.6
2022-11-15T01:58:01.448Z,50
2022-11-15T01:59:02.150Z,51.1
2022-11-15T02:00:01.264Z,52.2
2022-11-15T02:01:01.933Z,52.5
2022-11-15T02:02:01.895Z,52.6
2022-11-15T02:03:01.188Z,52.3
2022-11-15T02:04:01.094Z,52.4
2022-11-15T02:05:01.092Z,52.5
2022-11-15T02:06:01.109Z,52.3
2022-11-15T02:07:01.175Z,52.5
2022-11-15T02:08:01.143Z,52.7
2022-11-15T02:09:01.141Z,53.5
2022-11-15T02:10:01.430Z,54.2
2022-11-15T02:11:01.130Z,54.5
2022-11-15T02:12:01.300Z,54.4
2022-11-15T02:13:01.205Z,54.8
2022-11-15T02:14:02.125Z,54.7
2022-11-15T02:15:01.170Z,54.4
2022-11-15T02:16:03.313Z,54.2
2022-11-15T02:17:01.069Z,54.6
2022-11-15T02:18:01.123Z,54.4
2022-11-15T02:19:01.797Z,54.3
2022-11-15T02:20:01.203Z,54.8
2022-11-15T02:21:01.042Z,55.1
2022-11-15T02:22:01.107Z,55.3
2022-11-15T02:23:01.124Z,55.7
2022-11-15T02:24:01.047Z,56.2
2022-11-15T02:25:01.124Z,58.2
2022-11-15T02:26:01.209Z,59.4
2022-11-15T02:27:01.511Z,59.7
2022-11-15T02:28:01.524Z,59.8
2022-11-15T02:29:01.183Z,59.4
2022-11-15T02:30:01.353Z,59.4
2022-11-15T02:31:01.094Z,59.4
2022-11-15T02:32:01.096Z,59.9
2022-11-15T02:33:01.075Z,60.4
2022-11-15T02:34:01.105Z,60.7
2022-11-15T02:35:01.206Z,60.8
2022-11-15T02:36:01.479Z,61.8
2022-11-15T02:37:01.108Z,64.9
2022-11-15T02:38:01.050Z,67.3
2022-11-15T02:39:01.117Z,67.7
2022-11-15T02:40:01.231Z,67.7
2022-11-15T02:41:01.117Z,67.2
2022-11-15T02:42:01.522Z,66.8
2022-11-15T02:43:05.644Z,66.6
2022-11-15T02:44:01.137Z,66.4
2022-11-15T02:45:01.227Z,66.5
2022-11-15T02:46:01.215Z,67.2
2022-11-15T02:47:01.079Z,67.1
2022-11-15T02:48:01.102Z,67.2
2022-11-15T02:49:00.768Z,67.2
2022-11-15T02:50:00.477Z,67.2
2022-11-15T02:51:00.261Z,67.2
2022-11-15T02:52:01.415Z,67.2
2022-11-15T02:53:02.157Z,67.6
2022-11-15T02:54:01.118Z,68
2022-11-15T02:55:01.111Z,69
2022-11-15T02:56:01.155Z,70.3
2022-11-15T02:57:03.699Z,70.5
2022-11-15T02:58:01.156Z,70.2
2022-11-15T02:59:01.159Z,69.7
2022-11-15T03:00:02.572Z,69.7
2022-11-15T03:01:01.998Z,69.9
2022-11-15T03:02:05.710Z,69.8
2022-11-15T03:03:01.328Z,69.5
2022-11-15T03:04:01.149Z,69.5
2022-11-15T03:05:01.065Z,69.4
2022-11-15T03:06:01.067Z,69.5
2022-11-15T03:07:09.536Z,69.5
2022-11-15T03:08:02.710Z,69.3
2022-11-15T03:09:01.868Z,69.1
2022-11-15T03:10:01.473Z,69
2022-11-15T03:11:01.507Z,69
2022-11-15T03:12:12.654Z,68.9
2022-11-15T03:13:01.145Z,68.9
2022-11-15T03:14:01.786Z,68.6
2022-11-15T03:15:01.139Z,68.6
2022-11-15T03:16:01.188Z,68.8
2022-11-15T03:17:15.288Z,69.6
2022-11-15T03:18:01.181Z,70.2
2022-11-15T03:19:01.791Z,70
2022-11-15T03:20:01.162Z,70.2
2022-11-15T03:21:03.863Z,70.1
2022-11-15T03:22:01.482Z,69.9
2022-11-15T03:23:01.083Z,69.7
2022-11-15T03:24:01.561Z,69.6
2022-11-15T03:25:01.090Z,70.1
2022-11-15T03:26:01.091Z,70.4
2022-11-15T03:27:01.783Z,70.4
2022-11-15T03:28:01.499Z,70.4
2022-11-15T03:29:01.117Z,70.4
2022-11-15T03:30:01.149Z,70.5
2022-11-15T03:31:01.125Z,70.4
2022-11-15T03:32:01.128Z,70.2
2022-11-15T03:33:01.749Z,70.3
2022-11-15T03:34:01.041Z,70.4
2022-11-15T03:35:01.047Z,71.5
2022-11-15T03:36:01.216Z,71.8
2022-11-15T03:37:01.232Z,71.8
2022-11-15T03:38:01.252Z,71.6
2022-11-15T03:39:02.546Z,71.3
2022-11-15T03:40:01.996Z,70.7
2022-11-15T03:41:01.225Z,70.5
2022-11-15T03:42:01.058Z,70.9
2022-11-15T03:43:01.123Z,71
2022-11-15T03:44:01.472Z,70.5
2022-11-15T03:45:01.822Z,70.2
2022-11-15T03:46:01.952Z,70.6
2022-11-15T03:47:01.236Z,70.5
2022-11-15T03:48:01.081Z,70.6
2022-11-15T03:49:01.224Z,71.3
2022-11-15T03:50:01.229Z,72.2
2022-11-15T03:51:01.356Z,72.4
2022-11-15T03:52:01.351Z,72.7
2022-11-15T03:53:02.780Z,72.6
2022-11-15T03:54:01.836Z,72.2
2022-11-15T03:55:01.758Z,72.6
2022-11-15T03:56:04.567Z,72.3
2022-11-15T03:57:01.204Z,72.2
2022-11-15T03:58:02.534Z,72.3
2022-11-15T03:59:01.395Z,72.1
2022-11-15T04:00:08.201Z,72.4
2022-11-15T04:01:02.245Z,72.2
2022-11-15T04:02:01.152Z,72.7
2022-11-15T04:03:01.138Z,72.9
2022-11-15T04:04:00.726Z,73.9
2022-11-15T04:05:00.314Z,74.2
2022-11-15T04:05:59.901Z,74
2022-11-15T04:06:59.819Z,73.8
2022-11-15T04:08:01.460Z,73.8
2022-11-15T04:09:01.058Z,74
2022-11-15T04:10:01.089Z,74.2
2022-11-15T04:11:02.423Z,74.3
2022-11-15T04:12:01.876Z,75
2022-11-15T04:13:01.829Z,75
2022-11-15T04:14:01.245Z,75.6
2022-11-15T04:15:01.105Z,76.2
2022-11-15T04:16:07.862Z,76.1
2022-11-15T04:17:02.037Z,76.1
2022-11-15T04:18:01.251Z,76
2022-11-15T04:19:01.553Z,76
2022-11-15T04:20:00.925Z,76
2022-11-15T04:21:00.898Z,75.8
2022-11-15T04:22:01.150Z,75.7
2022-11-15T04:23:01.157Z,75.7
2022-11-15T04:24:01.436Z,75.5
2022-11-15T04:25:02.488Z,75.5
2022-11-15T04:26:01.124Z,75.5
2022-11-15T04:27:01.120Z,75
2022-11-15T04:28:01.126Z,75
2022-11-15T04:29:00.784Z,75
2022-11-15T04:30:00.377Z,75
2022-11-15T04:31:00.038Z,74.3
2022-11-15T04:32:00.045Z,74
2022-11-15T04:33:01.221Z,73.8
2022-11-15T04:34:03.933Z,73.8
2022-11-15T04:35:01.161Z,73.9
2022-11-15T04:36:01.128Z,73.8
2022-11-15T04:37:01.065Z,73.5
2022-11-15T04:38:05.579Z,73.5
2022-11-15T04:39:01.532Z,73.4
2022-11-15T04:40:01.291Z,73.7
2022-11-15T04:41:01.994Z,73.6
2022-11-15T04:42:01.120Z,73.4
2022-11-15T04:43:10.485Z,73.3
2022-11-15T04:44:00.772Z,73.3
2022-11-15T04:45:00.335Z,73.3
2022-11-15T04:45:59.950Z,73.4
2022-11-15T04:46:59.552Z,73.3
2022-11-15T04:48:14.197Z,72.7
2022-11-15T04:49:01.143Z,72.5
2022-11-15T04:50:01.520Z,72.4
2022-11-15T04:51:01.246Z,72.2
2022-11-15T04:52:01.684Z,72
2022-11-15T04:53:01.407Z,71.8
2022-11-15T04:54:02.055Z,71.7
2022-11-15T04:55:07.891Z,71.2
2022-11-15T04:56:01.148Z,70.9
2022-11-15T04:57:01.247Z,70.6
2022-11-15T04:58:01.471Z,70
2022-11-15T04:59:01.067Z,69.9
2022-11-15T05:00:01.042Z,69.8
2022-11-15T05:01:01.887Z,70.2
2022-11-15T05:02:01.315Z,70.5
2022-11-15T05:03:01.341Z,70.6
2022-11-15T05:04:02.229Z,70.6
2022-11-15T05:05:01.954Z,70.4
2022-11-15T05:06:01.411Z,70.6
2022-11-15T05:07:02.172Z,70.5
2022-11-15T05:08:01.379Z,70.5
2022-11-15T05:09:01.136Z,70.4
2022-11-15T05:10:01.538Z,70.6
2022-11-15T05:11:01.192Z,70.7
2022-11-15T05:12:01.779Z,70.6
2022-11-15T05:13:02.148Z,70.6
2022-11-15T05:14:02.163Z,70.5
2022-11-15T05:15:01.843Z,70.4
2022-11-15T05:16:01.862Z,70.6
2022-11-15T05:17:01.826Z,70.8
2022-11-15T05:18:01.123Z,71.3
2022-11-15T05:19:01.495Z,71.7
2022-11-15T05:20:01.126Z,72
2022-11-15T05:21:01.104Z,72
2022-11-15T05:22:01.111Z,72
2022-11-15T05:23:01.125Z,72.2
2022-11-15T05:24:00.869Z,72.4
2022-11-15T05:25:01.284Z,72.2
2022-11-15T05:26:06.405Z,72
2022-11-15T05:27:01.148Z,71.8
2022-11-15T05:28:01.158Z,71.8
2022-11-15T05:29:01.160Z,71.9
2022-11-15T05:30:01.592Z,72
2022-11-15T05:31:01.329Z,72
2022-11-15T05:32:01.066Z,71.8
2022-11-15T05:33:01.112Z,71.6
2022-11-15T05:34:01.108Z,71.6
2022-11-15T05:35:01.527Z,71.5
2022-11-15T05:36:01.742Z,71.2
2022-11-15T05:37:01.116Z,71
2022-11-15T05:38:01.162Z,70.8
2022-11-15T05:39:01.160Z,70.6
2022-11-15T05:40:01.438Z,70.3
2022-11-15T05:41:01.483Z,70.1
2022-11-15T05:42:01.330Z,70
2022-11-15T05:43:01.319Z,70
2022-11-15T05:44:01.146Z,70.1
2022-11-15T05:45:01.069Z,70
2022-11-15T05:46:01.067Z,69.5
2022-11-15T05:47:01.257Z,69.2
2022-11-15T05:48:01.150Z,69
2022-11-15T05:49:01.096Z,68.9
2022-11-15T05:50:01.508Z,68.7
2022-11-15T05:51:01.655Z,68.2
2022-11-15T05:52:02.143Z,67.9
2022-11-15T05:53:05.339Z,67.5
2022-11-15T05:54:01.189Z,67.2
2022-11-15T05:55:02.025Z,67.4
2022-11-15T05:56:01.110Z,67.3
2022-11-15T05:57:01.060Z,67.5
2022-11-15T05:58:01.071Z,67.6
2022-11-15T05:59:01.169Z,67.6
2022-11-15T06:00:02.500Z,67.9
2022-11-15T06:01:01.190Z,68.2
2022-11-15T06:02:01.228Z,68.4
2022-11-15T06:03:01.374Z,68.9
2022-11-15T06:04:01.883Z,69.1
2022-11-15T06:05:02.079Z,69.3
2022-11-15T06:06:02.103Z,69.3
2022-11-15T06:07:01.196Z,69.4
2022-11-15T06:08:01.115Z,69.2
2022-11-15T06:09:04.941Z,69.1
2022-11-15T06:10:01.465Z,69.1
2022-11-15T06:11:01.510Z,69.1
2022-11-15T06:12:00.857Z,69.1
2022-11-15T06:13:01.239Z,70
2022-11-15T06:14:07.890Z,71.1
2022-11-15T06:15:01.194Z,71.5
2022-11-15T06:16:01.259Z,71.6
2022-11-15T06:17:01.195Z,71.1
2022-11-15T06:18:01.052Z,70.9
2022-11-15T06:19:10.642Z,70.6
2022-11-15T06:20:01.203Z,70.8
2022-11-15T06:21:01.706Z,70.6
2022-11-15T06:22:01.998Z,70.7
2022-11-15T06:23:02.167Z,70.8
2022-11-15T06:24:13.586Z,70.9
2022-11-15T06:25:05.362Z,71
2022-11-15T06:26:01.509Z,70.8
2022-11-15T06:27:01.529Z,71
2022-11-15T06:28:02.021Z,70.8
2022-11-15T06:29:16.547Z,70.8
2022-11-15T06:30:01.355Z,70.7
2022-11-15T06:31:04.131Z,71
2022-11-15T06:32:01.424Z,70.9
2022-11-15T06:33:00.744Z,70.9
2022-11-15T06:34:00.445Z,71
2022-11-15T06:35:00.048Z,71.2
2022-11-15T06:35:59.950Z,71.5
2022-11-15T06:36:59.642Z,71.4
2022-11-15T06:38:01.229Z,71.5
2022-11-15T06:39:01.484Z,71.2
2022-11-15T06:40:01.443Z,71.3
2022-11-15T06:41:01.103Z,71.1
2022-11-15T06:42:01.109Z,71
2022-11-15T06:43:01.719Z,71.1
2022-11-15T06:44:01.742Z,71.1
2022-11-15T06:45:01.513Z,71
2022-11-15T06:46:01.249Z,70.9
2022-11-15T06:47:01.340Z,70.9
2022-11-15T06:48:01.875Z,71
2022-11-15T06:49:08.252Z,70.8
2022-11-15T06:50:01.067Z,70.7
2022-11-15T06:51:00.932Z,70.4
2022-11-15T06:52:00.737Z,70.3
2022-11-15T06:53:00.459Z,70.1
2022-11-15T06:54:00.258Z,70
2022-11-15T06:55:00.324Z,70.1
2022-11-15T06:55:59.881Z,70.2
2022-11-15T06:57:01.953Z,70.2
2022-11-15T06:58:01.793Z,70.4
2022-11-15T06:59:01.246Z,70.4
2022-11-15T07:00:01.312Z,70.4
2022-11-15T07:01:01.108Z,70.3
2022-11-15T07:02:01.782Z,70.4
2022-11-15T07:03:01.437Z,70.3
2022-11-15T07:04:01.156Z,70.3
2022-11-15T07:05:00.790Z,70.2
2022-11-15T07:06:06.644Z,70.6
2022-11-15T07:07:01.140Z,70.6
2022-11-15T07:08:01.300Z,70.6
2022-11-15T07:09:01.041Z,70.3
2022-11-15T07:10:01.053Z,70.3
2022-11-15T07:11:01.084Z,70.5
2022-11-15T07:12:07.266Z,70.5
2022-11-15T07:13:00.920Z,70.6
2022-11-15T07:14:01.519Z,70.7
2022-11-15T07:15:00.675Z,70.9
2022-11-15T07:16:00.317Z,71
2022-11-15T07:16:59.982Z,71.3
2022-11-15T07:17:59.601Z,71.4
2022-11-15T07:19:01.224Z,72.1
2022-11-15T07:20:01.302Z,72
2022-11-15T07:21:01.334Z,71.8
2022-11-15T07:22:01.964Z,72
2022-11-15T07:23:02.007Z,72.2
2022-11-15T07:24:01.241Z,72.6
2022-11-15T07:25:01.053Z,72.8
2022-11-15T07:26:01.120Z,73.1
2022-11-15T07:27:01.087Z,73.1
2022-11-15T07:28:02.258Z,72.9
2022-11-15T07:29:01.613Z,72.6
2022-11-15T07:30:01.201Z,72.9
2022-11-15T07:31:02.089Z,72.9
2022-11-15T07:32:01.230Z,73.2
2022-11-15T07:33:00.911Z,73.4
2022-11-15T07:34:01.317Z,73.3
2022-11-15T07:35:01.156Z,73.2
2022-11-15T07:36:01.162Z,72.7
2022-11-15T07:37:01.277Z,72.7
2022-11-15T07:38:01.069Z,72.5
2022-11-15T07:39:01.330Z,71.9
2022-11-15T07:40:01.339Z,71.2
2022-11-15T07:41:02.873Z,70.4
2022-11-15T07:42:01.515Z,70.2
2022-11-15T07:43:01.371Z,70.6
2022-11-15T07:44:01.405Z,70.6
2022-11-15T07:45:01.288Z,70.4
2022-11-15T07:46:01.111Z,70.8
2022-11-15T07:47:01.527Z,70.7
2022-11-15T07:48:01.124Z,70.2
2022-11-15T07:49:01.400Z,69.9
2022-11-15T07:50:01.734Z,70.2
2022-11-15T07:51:01.822Z,69.8
2022-11-15T07:52:04.159Z,69.2
2022-11-15T07:53:01.553Z,69.3
2022-11-15T07:54:01.330Z,69
2022-11-15T07:55:03.759Z,68.1
2022-11-15T07:56:01.244Z,68
2022-11-15T07:57:06.616Z,68.3
2022-11-15T07:58:01.763Z,68.3
2022-11-15T07:59:02.051Z,67.9
2022-11-15T08:00:06.162Z,67.7
2022-11-15T08:01:01.544Z,67.6
2022-11-15T08:02:01.311Z,66.5
2022-11-15T08:03:01.174Z,66.6
2022-11-15T08:04:01.132Z,65.7
2022-11-15T08:05:11.247Z,64.6
2022-11-15T08:06:01.531Z,63.9
2022-11-15T08:07:01.175Z,63
2022-11-15T08:08:02.864Z,61.6
2022-11-15T08:09:01.484Z,61.2
2022-11-15T08:10:14.233Z,60.6
2022-11-15T08:11:01.350Z,60.3
2022-11-15T08:12:02.002Z,60.2
2022-11-15T08:13:02.189Z,59.7
2022-11-15T08:14:00.891Z,59.2
2022-11-15T08:15:16.587Z,57.7
2022-11-15T08:16:01.199Z,57.1
2022-11-15T08:17:01.095Z,56.7
2022-11-15T08:18:01.151Z,55.7
2022-11-15T08:19:01.042Z,55.1
2022-11-15T08:20:01.117Z,54.8
2022-11-15T08:21:01.263Z,54.8
2022-11-15T08:22:01.262Z,54
2022-11-15T08:23:01.941Z,54.1
2022-11-15T08:24:00.933Z,53.7
2022-11-15T08:25:00.636Z,52.7
2022-11-15T08:26:00.330Z,52.8
2022-11-15T08:26:59.961Z,52.5
2022-11-15T08:27:59.621Z,52.1
2022-11-15T08:29:01.193Z,51.8
2022-11-15T08:30:01.401Z,51.2
2022-11-15T08:31:02.107Z,49.8
2022-11-15T08:32:01.529Z,49.1
2022-11-15T08:33:01.265Z,48.3
2022-11-15T08:34:01.898Z,48.6
2022-11-15T08:35:01.079Z,48.6
2022-11-15T08:36:01.057Z,48.6
2022-11-15T08:37:00.700Z,48.7
2022-11-15T08:38:00.420Z,47.8
2022-11-15T08:39:00.226Z,47.3
2022-11-15T08:39:59.912Z,47.2
2022-11-15T08:40:59.619Z,47.1
2022-11-15T08:42:02.994Z,46.8
2022-11-15T08:43:01.350Z,46.3
2022-11-15T08:44:01.068Z,45.9
2022-11-15T08:45:01.072Z,44.9
2022-11-15T08:46:01.078Z,44.2
2022-11-15T08:47:01.463Z,43.4
2022-11-15T08:48:01.217Z,43.3
2022-11-15T08:49:01.101Z,42.5
2022-11-15T08:50:00.491Z,42.1
2022-11-15T08:51:00.088Z,41.6
2022-11-15T08:51:59.713Z,41.4
2022-11-15T08:53:01.430Z,41.3
2022-11-15T08:54:02.039Z,40.7
2022-11-15T08:55:02.051Z,39.5
2022-11-15T08:56:01.536Z,39.4
2022-11-15T08:57:01.144Z,38.7
2022-11-15T08:58:01.152Z,38.6
2022-11-15T08:59:00.736Z,38.8
2022-11-15T09:00:00.339Z,38.6
2022-11-15T09:01:00.034Z,38.6
2022-11-15T09:01:59.686Z,39
2022-11-15T09:03:01.330Z,38.7
2022-11-15T09:04:01.996Z,38.3
2022-11-15T09:05:01.940Z,38.1
2022-11-15T09:06:02.084Z,38.9
2022-11-15T09:07:01.184Z,38.9
2022-11-15T09:08:06.553Z,38.6
2022-11-15T09:09:01.040Z,38.1
2022-11-15T09:10:01.144Z,38.4
2022-11-15T09:11:01.135Z,38.3
2022-11-15T09:12:02.976Z,38.4
2022-11-15T09:13:01.525Z,38.4
2022-11-15T09:14:02.154Z,38.4
2022-11-15T09:15:01.135Z,38.2
2022-11-15T09:16:01.062Z,37.9
2022-11-15T09:17:01.066Z,37.4
2022-11-15T09:18:00.475Z,37.2
2022-11-15T09:19:00.152Z,36.6
2022-11-15T09:19:59.872Z,36
2022-11-15T09:21:01.837Z,36.5
2022-11-15T09:22:01.278Z,35.9
2022-11-15T09:23:03.944Z,34.6
2022-11-15T09:24:02.341Z,34.8
2022-11-15T09:25:01.141Z,34.7
2022-11-15T09:26:01.138Z,34.3
2022-11-15T09:27:01.315Z,33.8
2022-11-15T09:28:01.146Z,33.7
2022-11-15T09:29:01.148Z,33.6
2022-11-15T09:30:01.151Z,34
2022-11-15T09:31:01.888Z,34.2
2022-11-15T09:32:01.070Z,33.9
2022-11-15T09:33:01.080Z,33.9
2022-11-15T09:34:00.752Z,33.8
2022-11-15T09:35:00.390Z,33.4
2022-11-15T09:35:59.964Z,33.3
2022-11-15T09:36:59.869Z,32.8
2022-11-15T09:37:59.473Z,32.9
2022-11-15T09:39:01.118Z,32.9
2022-11-15T09:40:01.322Z,32.3
2022-11-15T09:41:08.507Z,31.1
2022-11-15T09:42:01.124Z,31.8
2022-11-15T09:43:01.128Z,31.5
2022-11-15T09:44:01.135Z,31.1
2022-11-15T09:45:01.150Z,28.5
2022-11-15T09:46:10.388Z,28.2
2022-11-15T09:47:01.403Z,28.6
2022-11-15T09:48:01.080Z,28.6
2022-11-15T09:49:01.085Z,28.8
2022-11-15T09:50:01.101Z,28.4
2022-11-15T09:51:13.662Z,27.8
2022-11-15T09:52:01.102Z,27.5
2022-11-15T09:53:01.825Z,27.7
2022-11-15T09:55:01.109Z,27.9
2022-11-15T09:56:16.424Z,27.6
2022-11-15T09:57:01.169Z,27.5
2022-11-15T09:58:01.828Z,27.2
2022-11-15T09:59:01.181Z,26.8
2022-11-15T10:00:23.848Z,27
2022-11-15T10:01:02.203Z,26.7
2022-11-15T10:02:01.204Z,26.4
2022-11-15T10:03:02.487Z,26.7
2022-11-15T10:04:01.987Z,27
2022-11-15T10:05:02.614Z,27.3
2022-11-15T10:06:01.465Z,27.2
2022-11-15T10:07:01.136Z,26.8
2022-11-15T10:08:01.098Z,26.4
2022-11-15T10:09:01.110Z,26.2
2022-11-15T10:10:01.101Z,26.1
2022-11-15T10:11:30.501Z,26.3
2022-11-15T10:12:01.108Z,26
2022-11-15T10:13:01.120Z,25.6
2022-11-15T10:14:00.823Z,25
2022-11-15T10:15:01.669Z,25.2
2022-11-15T10:16:01.816Z,25
2022-11-15T10:17:01.442Z,24.8
2022-11-15T10:18:02.589Z,24.6
2022-11-15T10:19:01.519Z,24.5
2022-11-15T10:20:05.701Z,24
2022-11-15T10:21:01.443Z,24
2022-11-15T10:22:01.147Z,25.9
2022-11-15T10:23:01.145Z,25.3
2022-11-15T10:24:01.042Z,25
2022-11-15T10:25:01.060Z,24.5
2022-11-15T10:26:06.420Z,24.8
2022-11-15T10:27:01.115Z,23.7
2022-11-15T10:28:01.501Z,23.6
2022-11-15T10:29:01.121Z,24.5
2022-11-15T10:30:01.122Z,24.3
2022-11-15T10:31:01.062Z,23.3
2022-11-15T10:32:00.625Z,23.3
2022-11-15T10:33:00.297Z,22.6
2022-11-15T10:34:00.363Z,21.6
2022-11-15T10:35:02.114Z,20.9
2022-11-15T10:36:01.073Z,20.3
2022-11-15T10:37:01.472Z,20.1
2022-11-15T10:38:02.092Z,20
2022-11-15T10:39:01.115Z,19.8
2022-11-15T10:40:01.123Z,19.2
2022-11-15T10:41:01.831Z,18.9
2022-11-15T10:42:06.440Z,18.6
2022-11-15T10:43:01.394Z,18.6
2022-11-15T10:44:02.131Z,19.3
2022-11-15T10:45:02.216Z,19
2022-11-15T10:46:13.678Z,18.3
2022-11-15T10:47:01.143Z,17.9
2022-11-15T10:48:01.135Z,17.5
2022-11-15T10:49:01.148Z,17.3
2022-11-15T10:50:01.187Z,17.2
2022-11-15T10:51:01.383Z,17.2
2022-11-15T10:52:01.208Z,16.9
2022-11-15T10:53:01.069Z,17.2
2022-11-15T10:54:01.460Z,17.7
2022-11-15T10:55:01.098Z,17.6
2022-11-15T10:56:01.091Z,16.9
2022-11-15T10:57:01.089Z,16.2
2022-11-15T10:58:01.090Z,15.8
2022-11-15T10:59:01.115Z,15.8
2022-11-15T11:00:01.177Z,16
2022-11-15T11:01:01.155Z,16.3
2022-11-15T11:02:01.785Z,17.1
2022-11-15T11:03:01.224Z,16.2
2022-11-15T11:04:01.131Z,15.8
2022-11-15T11:05:01.173Z,16.1
2022-11-15T11:06:01.153Z,15.9
2022-11-15T11:07:01.179Z,15.6
2022-11-15T11:08:01.150Z,15.2
2022-11-15T11:09:01.080Z,14.5
2022-11-15T11:10:01.081Z,14.1
2022-11-15T11:11:03.585Z,14.1
2022-11-15T11:12:01.907Z,14.3
2022-11-15T11:13:01.105Z,14.7
2022-11-15T11:14:01.996Z,15
2022-11-15T11:15:00.792Z,14.5
2022-11-15T11:16:00.477Z,14.5
2022-11-15T11:17:03.001Z,14.5
2022-11-15T11:18:01.840Z,14
2022-11-15T11:19:01.167Z,14
2022-11-15T11:20:01.197Z,13.6
2022-11-15T11:21:01.186Z,13.8
2022-11-15T11:22:06.166Z,13.7
2022-11-15T11:23:01.600Z,13.6
2022-11-15T11:24:01.496Z,13.5
2022-11-15T11:25:01.202Z,13.6
2022-11-15T11:26:02.175Z,14.1
2022-11-15T11:27:08.343Z,13.7
2022-11-15T11:28:01.821Z,13.4
2022-11-15T11:29:01.151Z,13
2022-11-15T11:30:01.110Z,13.2
2022-11-15T11:31:01.106Z,13.5
2022-11-15T11:32:10.637Z,13.5
2022-11-15T11:33:01.507Z,13.5
2022-11-15T11:34:01.176Z,13.2
2022-11-15T11:35:01.141Z,13.2
2022-11-15T11:36:01.957Z,12.6
2022-11-15T11:37:13.290Z,12.3
2022-11-15T11:38:01.251Z,12.2
2022-11-15T11:39:01.207Z,12.3
2022-11-15T11:40:02.944Z,12.3
2022-11-15T11:41:02.681Z,12
2022-11-15T11:42:15.849Z,12.3
2022-11-15T11:43:02.076Z,12
2022-11-15T11:44:02.598Z,11.4
2022-11-15T11:45:01.094Z,11.3
2022-11-15T11:46:01.113Z,11.1
2022-11-15T11:47:01.158Z,11.2
2022-11-15T11:48:01.208Z,11.1
2022-11-15T11:49:03.964Z,10.4
2022-11-15T11:50:01.859Z,9.6
2022-11-15T11:51:01.206Z,9.6
2022-11-15T11:52:01.191Z,9.3
2022-11-15T11:53:04.174Z,9.3
2022-11-15T11:54:01.849Z,9.3
2022-11-15T11:55:01.173Z,9.4
2022-11-15T11:56:01.208Z,9.3
2022-11-15T11:57:00.763Z,8.5
2022-11-15T11:58:00.332Z,8.2
2022-11-15T11:58:59.923Z,8.2
2022-11-15T11:59:59.659Z,8.2
2022-11-15T12:01:01.823Z,7.9
2022-11-15T12:02:01.282Z,7.8
2022-11-15T12:03:04.625Z,8.2
2022-11-15T12:04:02.328Z,8
2022-11-15T12:05:01.790Z,8
2022-11-15T12:06:01.133Z,7.9
2022-11-15T12:07:01.249Z,8
2022-11-15T12:08:04.159Z,7.9
2022-11-15T12:09:02.044Z,7.3
2022-11-15T12:10:01.185Z,6.6
2022-11-15T12:11:01.189Z,6.9
2022-11-15T12:12:01.164Z,7.1
2022-11-15T12:13:01.089Z,7.3
2022-11-15T12:14:01.389Z,7.1
2022-11-15T12:15:01.225Z,7.2
2022-11-15T12:16:04.925Z,6.5
2022-11-15T12:17:01.843Z,6.1
2022-11-15T12:18:01.182Z,6
2022-11-15T12:19:00.767Z,6.1
2022-11-15T12:20:00.480Z,6.7
2022-11-15T12:21:00.274Z,6.8
2022-11-15T12:21:59.997Z,6.9
2022-11-15T12:22:59.677Z,7.3
2022-11-15T12:24:01.600Z,6.5
2022-11-15T12:25:02.198Z,6
2022-11-15T12:26:01.461Z,6.1
2022-11-15T12:27:01.166Z,5.6
2022-11-15T12:28:01.142Z,5.4
2022-11-15T12:29:09.176Z,5.2
2022-11-15T12:30:01.079Z,4.5
2022-11-15T12:31:01.091Z,3.8
2022-11-15T12:32:01.153Z,4.1
2022-11-15T12:33:01.457Z,4
2022-11-15T12:34:07.045Z,4.3
2022-11-15T12:35:01.084Z,4.5
2022-11-15T12:36:00.806Z,3.9
2022-11-15T12:37:00.386Z,3.6
2022-11-15T12:38:00.108Z,3.4
2022-11-15T12:38:59.810Z,3.5
2022-11-15T12:40:03.966Z,3.3
2022-11-15T12:41:01.442Z,3.4
2022-11-15T12:42:01.288Z,3.2
2022-11-15T12:43:02.247Z,3.3
2022-11-15T12:44:02.976Z,3.6
2022-11-15T12:45:01.963Z,3.8
2022-11-15T12:46:01.564Z,3.8
2022-11-15T12:47:01.070Z,3.9
2022-11-15T12:48:01.067Z,3.6
2022-11-15T12:49:01.179Z,3.3
2022-11-15T12:50:01.493Z,3.2
2022-11-15T12:51:01.488Z,3.2
2022-11-15T12:52:01.230Z,3.3
2022-11-15T12:53:01.916Z,3.1
2022-11-15T12:54:01.877Z,2.8
2022-11-15T12:55:01.117Z,2
2022-11-15T12:56:00.821Z,2.2
2022-11-15T12:57:01.312Z,2.6
2022-11-15T12:58:02.944Z,3.3
2022-11-15T12:59:01.943Z,3.4
2022-11-15T13:00:01.155Z,3.6
2022-11-15T13:01:01.398Z,3.6
2022-11-15T13:02:01.146Z,3.7
2022-11-15T13:03:00.967Z,3.8
2022-11-15T13:04:01.476Z,3.7
2022-11-15T13:05:01.091Z,3.5
2022-11-15T13:06:01.093Z,3.4
2022-11-15T13:07:01.277Z,3.4
2022-11-15T13:08:04.179Z,2.3
2022-11-15T13:09:04.072Z,2.2
2022-11-15T13:10:01.807Z,2
2022-11-15T13:11:01.214Z,1.7
2022-11-15T13:12:01.603Z,1.8
2022-11-15T13:13:08.133Z,1.9
2022-11-15T13:14:01.148Z,1.9
2022-11-15T13:15:01.057Z,2.1
2022-11-15T13:16:01.070Z,2.1
2022-11-15T13:17:00.607Z,2
2022-11-15T13:18:10.608Z,2
2022-11-15T13:19:01.480Z,1.8
2022-11-15T13:20:02.208Z,1.8
2022-11-15T13:21:02.939Z,1.9
2022-11-15T13:22:01.128Z,2.4
2022-11-15T13:23:14.248Z,3
2022-11-15T13:24:01.098Z,3.6
2022-11-15T13:25:01.316Z,4.3
2022-11-15T13:26:01.324Z,4.8
2022-11-15T13:27:01.519Z,5
2022-11-15T13:28:16.801Z,5